• Join FlightAware (Why Join?)
  • Login
  • US Flag 
08:13PM EST


 

Airport Tracker/Info


-or-


 

Live Flight TrackerFlight Track Log ✈ VH-OWB ✈ 08-Jul-2014 ✈ YMEK / MKR - YGEL / GET

Flight Track Log - Related Links

Times and Time Zones

All times are in EDT time to prevent confusion due to time zone crossing. See the VH-OWB flight status page for this flight to view local times or setup timezone preferences in your user account.

Time Position Orientation Groundspeed Altitude Reporting Facility
EDT Latitude Longitude Course Direction KTS MPH feet Rate Location/Type
07:25PM -26.6070 118.5323 236° Southwest 24,000  Level Aus ATC (Calculated)
07:25PM -26.6448 118.4690 236° Southwest 24,000  Level Aus ATC (Calculated)
07:27PM -26.6590 118.4450 236° Southwest  Level FlightAware Approximate
07:28PM -26.7063 118.3654 236° Southwest  Level FlightAware Approximate
07:28PM -26.6825 118.4056 360° North 24,000  Level Aus ATC (Calculated)
07:28PM -26.6825 118.4056 236° Southwest 24,000  Level Aus ATC (Calculated)
07:29PM -26.7202 118.3422 56° Northeast 24,000  Level Aus ATC (Calculated)
07:30PM -26.7143 118.3519 236° Southwest  Level FlightAware Approximate
07:31PM -26.7614 118.2727 236° Southwest  Level FlightAware Approximate
07:31PM -26.7578 118.2787 236° Southwest 24,000  Level Aus ATC (Calculated)
07:32PM -26.7894 118.2253 236° Southwest  Level FlightAware Approximate
07:33PM -26.8179 118.1773 236° Southwest  Level FlightAware Approximate
07:34PM -26.8398 118.1403 236° Southwest  Level FlightAware Approximate
07:35PM -26.8681 118.0922 236° Southwest  Level FlightAware Approximate
07:36PM -26.8965 118.0441 237° Southwest  Level FlightAware Approximate
07:37PM -26.9249 117.9960 237° Southwest  Level FlightAware Approximate
07:37PM -26.8706 118.0881 236° Southwest 24,000  Level Aus ATC (Calculated)
07:39PM -26.9253 117.9956 236° Southwest  Level Estimated
07:40PM -26.9540 117.9468 237° Southwest  Level FlightAware Approximate
07:40PM -26.9456 117.9608 237° Southwest 24,000  Level Aus ATC (Calculated)
07:42PM -27.0001 117.8681 237° Southwest  Level FlightAware Approximate
07:43PM -27.0288 117.8193 237° Southwest  Level FlightAware Approximate
07:43PM -27.0205 117.8333 360° North 24,000  Level Aus ATC (Calculated)
07:43PM -27.0205 117.8333 237° Southwest 24,000  Level Aus ATC (Calculated)
07:45PM -27.0641 117.7591 237° Southwest  Level FlightAware Approximate
07:46PM -27.0931 117.7096 237° Southwest  Level FlightAware Approximate
07:46PM -27.0953 117.7057 237° Southwest 24,000  Level Aus ATC (Calculated)
07:48PM -27.1388 117.6314 237° Southwest  Level FlightAware Approximate
07:49PM -27.1677 117.5818 237° Southwest  Level FlightAware Approximate
07:50PM -27.1968 117.5322 237° Southwest  Level Estimated
07:51PM -27.2257 117.4826 237° Southwest  Level FlightAware Approximate
07:52PM -27.2545 117.4330 237° Southwest  Level FlightAware Approximate
07:53PM -27.2834 117.3833 237° Southwest  Level FlightAware Approximate
07:54PM -27.3123 117.3336 237° Southwest  Level FlightAware Approximate
07:55PM -27.3411 117.2838 237° Southwest  Level FlightAware Approximate
07:55PM -27.3118 117.3342 237° Southwest 24,000  Level Aus ATC (Calculated)
07:56PM -27.3699 117.2341 237° Southwest  Level FlightAware Approximate
07:56PM -27.3640 117.2442 237° Southwest 24,000  Level Aus ATC (Calculated)
07:58PM -27.4107 117.1635 237° Southwest  Level FlightAware Approximate
07:59PM -27.4398 117.1130 237° Southwest  Level FlightAware Approximate
08:00PM -27.4690 117.0625 237° Southwest  Level FlightAware Approximate
08:01PM -27.4981 117.0120 237° Southwest  Level FlightAware Approximate
08:02PM -27.5272 116.9614 237° Southwest  Level FlightAware Approximate
08:03PM -27.5563 116.9109 237° Southwest  Level FlightAware Approximate
08:03PM -27.5720 116.8834 237° Southwest 24,000  Level Aus ATC (Calculated)
08:04PM -27.5853 116.8602 237° Southwest  Level FlightAware Approximate
08:05PM -27.6021 116.8311 237° Southwest  Level FlightAware Approximate
08:06PM -27.6311 116.7804 237° Southwest  Level FlightAware Approximate
08:06PM -27.6757 116.7025 237° Southwest 24,000  Level Aus ATC (Calculated)
08:08PM -27.7283 116.6104 237° Southwest  Level FlightAware Approximate
08:08PM -27.7274 116.6119 237° Southwest 24,000  Level Aus ATC (Calculated)
08:10PM -27.7791 116.5214 237° Southwest  Level FlightAware Approximate
08:10PM -27.8308 116.4305 57° Northeast 24,000  Level Aus ATC (Calculated)
08:11PM -27.8080 116.4706 237° Southwest  Level FlightAware Approximate
08:11PM -27.8308 116.4305 237° Southwest 24,000  Level Aus ATC (Calculated)
08:12PM -27.8635 116.3729 237° Southwest  Level FlightAware Approximate
08:12PM -27.8823 116.3397 360° North 24,000  Level Aus ATC (Calculated)
08:13PM -27.8823 116.3397 237° Southwest 24,000  Level Aus ATC (Calculated)
08:15PM -27.9362 116.2446 237° Southwest  Level FlightAware Approximate
08:15PM -27.9853 116.1578 57° Northeast 24,000  Level Aus ATC (Calculated)
08:16PM -27.9650 116.1937 237° Southwest  Level FlightAware Approximate
08:16PM -27.9853 116.1578 237° Southwest 24,000  Level Aus ATC (Calculated)
08:17PM -28.0203 116.0957 237° Southwest  Level FlightAware Approximate
08:18PM -28.0256 116.0863 237° Southwest  Level FlightAware Approximate
08:19PM -28.0543 116.0353 237° Southwest  Level FlightAware Approximate
08:20PM -28.0460 116.0502 237° Southwest  Level FlightAware Approximate
08:21PM -28.0749 115.9992 237° Southwest  Level FlightAware Approximate
08:21PM -28.1324 115.8978 237° Southwest  Level Aus ATC (Calculated)
08:23PM -28.1771 115.8187 237° Southwest  Level FlightAware Approximate
08:24PM -28.2059 115.7676 237° Southwest  Level FlightAware Approximate
08:24PM -28.2264 115.7283 231° Southwest 200  Level Aus ATC (Calculated)
08:25PM -28.2347 115.7165 237° Southwest  Level FlightAware Approximate
08:26PM -28.2672 115.6559 237° Southwest  Level FlightAware Approximate
08:27PM -28.2960 115.6048 237° Southwest  Level FlightAware Approximate
08:27PM -28.3231 115.5592 237° Southwest  Level Aus ATC (Calculated)
08:29PM -28.3681 115.4790 237° Southwest  Level FlightAware Approximate
08:30PM -28.3968 115.4277 238° Southwest  Level FlightAware Approximate
08:31PM -28.4254 115.3764 238° Southwest  Level FlightAware Approximate
08:32PM -28.4541 115.3251 238° Southwest  Level FlightAware Approximate
08:33PM -28.4827 115.2738 238° Southwest  Level FlightAware Approximate
08:33PM -28.5093 115.2186 237° Southwest 200  Level Aus ATC (Calculated)
08:35PM -28.5546 115.1384 237° Southwest  Level FlightAware Approximate
08:36PM -28.5834 115.0871 237° Southwest  Level FlightAware Approximate
08:37PM -28.6123 115.0359 237° Southwest  Level FlightAware Approximate
08:37PM -28.6548 114.9638 53° Northeast  Level Aus ATC (Calculated)
08:38PM -28.6411 114.9846 237° Southwest  Level FlightAware Approximate
08:39PM -28.7042 114.8745 238° Southwest  Level FlightAware Approximate
08:40PM -28.7327 114.8229 238° Southwest  Level FlightAware Approximate
08:40PM -28.7491 114.7930 360° North  Level Aus ATC (Calculated)
08:40PM -28.7491 114.7930 238° Southwest  Level Aus ATC (Calculated)
08:41PM -28.7611 114.7712 238° Southwest  Level FlightAware Approximate
08:42PM -28.7896 114.7196 238° Southwest  Level FlightAware Approximate
08:43PM -28.7961 114.7075 238° Southwest  Level Estimated
08:44PM -28.7961 114.7075 180° South  Level Estimated
08:45PM -28.7903 114.7061 348° North  Level FlightAware Approximate
08:46PM -28.7961 114.7075 348° North  Level Estimated
08:47PM -28.7903 114.7061 348° North  Level FlightAware Approximate
08:48PM -28.7961 114.7075 348° North  Level Estimated
08:49PM -28.7903 114.7061 348° North  Level FlightAware Approximate
08:50PM -28.7903 114.7061 348° North  Level FlightAware Approximate